Time;durP1;ratioP1;P1;durP2;ratioP2;P2;SDS_P1;SDS_P2;PMS_P1;PMS_P2;Temp;Humidity;BMP_temperature;BMP_pressure;BME280_temperature;BME280_humidity;BME280_pressure;Samples;Min_cycle;Max_cycle;Signal;HPM_P1;HPM_P2
2022/04/27 00:01:24;;;;;;;1.50;1.10;;;9.50;98.20;;;;;;5023267;28;20491;-77
2022/04/27 00:03:53;;;;;;;1.50;1.10;;;9.50;98.20;;;;;;5026215;28;20467;-77
2022/04/27 00:06:19;;;;;;;1.50;1.20;;;9.50;98.20;;;;;;5038591;28;20463;-76
2022/04/27 00:08:46;;;;;;;1.50;1.07;;;9.60;98.20;;;;;;5047857;28;20486;-76
2022/04/27 00:11:13;;;;;;;1.50;1.10;;;9.60;98.20;;;;;;5040980;28;20486;-77
2022/04/27 00:13:40;;;;;;;1.50;1.10;;;9.60;98.20;;;;;;5043156;28;20867;-77
2022/04/27 00:16:07;;;;;;;1.50;1.10;;;9.60;98.20;;;;;;5036968;28;20472;-77
2022/04/27 00:18:34;;;;;;;1.50;1.10;;;9.60;98.20;;;;;;5042731;28;20495;-77
2022/04/27 00:21:02;;;;;;;1.50;1.20;;;9.60;98.20;;;;;;5020729;28;20459;-77
2022/04/27 00:23:30;;;;;;;1.50;1.20;;;9.60;98.20;;;;;;5019452;28;20466;-77
2022/04/27 00:25:57;;;;;;;1.50;1.20;;;9.60;98.20;;;;;;5041027;28;20462;-76
2022/04/27 00:28:28;;;;;;;1.50;1.10;;;9.60;98.20;;;;;;5045705;28;20970;-76
2022/04/27 00:30:55;;;;;;;1.50;1.20;;;9.60;98.20;;;;;;5043761;28;20497;-76
2022/04/27 00:33:22;;;;;;;1.50;1.20;;;9.50;98.20;;;;;;5046461;28;20521;-77
2022/04/27 00:35:48;;;;;;;1.50;1.10;;;9.50;98.20;;;;;;5043728;28;20466;-76
2022/04/27 00:38:16;;;;;;;1.50;1.10;;;9.50;98.20;;;;;;5016072;28;21195;-77
2022/04/27 00:40:44;;;;;;;1.50;1.10;;;9.50;98.20;;;;;;5049167;28;20466;-77
2022/04/27 00:43:13;;;;;;;1.50;1.20;;;9.50;98.20;;;;;;5036152;28;20490;-77
2022/04/27 00:45:40;;;;;;;1.50;1.10;;;9.50;98.20;;;;;;5051494;28;20466;-77
2022/04/27 00:48:07;;;;;;;1.50;1.10;;;9.50;98.20;;;;;;5046459;28;20497;-77
2022/04/27 00:50:34;;;;;;;1.50;1.20;;;9.50;98.20;;;;;;5039070;28;20466;-76
2022/04/27 00:53:01;;;;;;;1.50;1.10;;;9.50;98.20;;;;;;5010798;28;21010;-76
2022/04/27 00:55:30;;;;;;;1.50;1.10;;;9.50;98.20;;;;;;5051141;28;20477;-77
2022/04/27 00:57:59;;;;;;;1.50;1.17;;;9.50;98.20;;;;;;5043168;28;20494;-76
2022/04/27 01:00:26;;;;;;;1.50;1.10;;;9.50;98.20;;;;;;5049639;28;20469;-77
2022/04/27 01:02:53;;;;;;;1.50;1.10;;;9.50;98.20;;;;;;5037744;28;20505;-77
2022/04/27 01:05:21;;;;;;;1.50;1.30;;;9.50;98.20;;;;;;5049906;28;20462;-77
2022/04/27 01:07:48;;;;;;;1.50;1.20;;;9.50;98.20;;;;;;5047733;28;20486;-77
2022/04/27 01:10:14;;;;;;;1.50;1.10;;;9.50;98.20;;;;;;5050226;28;20466;-77
2022/04/27 01:12:43;;;;;;;1.50;1.10;;;9.50;98.20;;;;;;5043897;28;20458;-77
2022/04/27 01:15:10;;;;;;;1.50;1.10;;;9.50;98.20;;;;;;5046035;28;20459;-77
2022/04/27 01:17:37;;;;;;;1.50;1.10;;;9.50;98.20;;;;;;5045818;28;20484;-76
2022/04/27 01:20:05;;;;;;;1.50;1.10;;;9.50;98.20;;;;;;5041648;28;20520;-77
2022/04/27 01:22:34;;;;;;;1.50;1.20;;;9.50;98.20;;;;;;5046860;28;21004;-77
2022/04/27 01:25:00;;;;;;;1.50;1.10;;;9.50;98.20;;;;;;5049736;28;20469;-77
2022/04/27 01:27:27;;;;;;;1.50;1.10;;;9.50;98.20;;;;;;5048825;28;20468;-76
2022/04/27 01:29:54;;;;;;;1.50;1.10;;;9.50;98.20;;;;;;5048776;28;21136;-77
2022/04/27 01:32:21;;;;;;;1.50;1.13;;;9.50;98.20;;;;;;5047406;28;20458;-76
2022/04/27 01:34:48;;;;;;;1.50;1.20;;;9.50;98.20;;;;;;5050560;28;20494;-76
2022/04/27 01:40:00;;;;;;;1.50;1.20;;;9.50;98.20;;;;;;5046498;28;20481;-77
2022/04/27 01:42:27;;;;;;;1.50;1.10;;;9.40;98.20;;;;;;5038358;28;20486;-77
2022/04/27 01:44:54;;;;;;;1.50;1.20;;;9.40;98.20;;;;;;5040666;28;20463;-76
2022/04/27 01:47:20;;;;;;;1.50;1.10;;;9.40;98.20;;;;;;5021147;28;21058;-77
2022/04/27 01:49:47;;;;;;;1.50;1.10;;;9.40;98.20;;;;;;5032674;28;20494;-77
2022/04/27 01:55:00;;;;;;;1.50;1.20;;;9.30;98.20;;;;;;5039372;28;20818;-77
2022/04/27 01:57:26;;;;;;;1.50;1.10;;;9.20;98.20;;;;;;5038755;28;20956;-77
2022/04/27 01:59:54;;;;;;;1.50;1.10;;;9.10;98.20;;;;;;5045465;28;20583;-77
2022/04/27 02:02:20;;;;;;;1.50;1.20;;;9.10;98.20;;;;;;5036322;28;20466;-77
2022/04/27 02:04:47;;;;;;;1.50;1.20;;;9.00;98.20;;;;;;5040267;28;21120;-76
2022/04/27 02:07:14;;;;;;;1.50;1.20;;;9.00;98.20;;;;;;5045363;28;20474;-77
2022/04/27 02:09:41;;;;;;;1.50;1.10;;;8.90;98.20;;;;;;5046541;28;21185;-77
2022/04/27 02:12:10;;;;;;;1.53;1.23;;;8.80;98.20;;;;;;5044834;28;20474;-77
2022/04/27 02:14:36;;;;;;;1.50;1.10;;;8.80;98.20;;;;;;5049917;28;20466;-76
2022/04/27 02:17:03;;;;;;;1.50;1.20;;;8.70;98.20;;;;;;5042690;28;20473;-77
2022/04/27 02:19:30;;;;;;;1.50;1.20;;;8.60;98.20;;;;;;5039604;28;20498;-77
2022/04/27 02:21:58;;;;;;;1.50;1.17;;;8.60;98.20;;;;;;5032999;28;20467;-77
2022/04/27 02:24:25;;;;;;;1.50;1.20;;;8.60;98.20;;;;;;5046005;28;20458;-77
2022/04/27 02:26:54;;;;;;;1.50;1.20;;;8.50;98.20;;;;;;5038100;28;20927;-76
2022/04/27 02:29:23;;;;;;;1.50;1.10;;;8.50;98.20;;;;;;5042274;28;20474;-77
2022/04/27 02:31:50;;;;;;;1.50;1.13;;;8.40;98.20;;;;;;5046062;28;20465;-77
2022/04/27 02:34:17;;;;;;;1.50;1.10;;;8.40;98.20;;;;;;5048772;28;20481;-76
2022/04/27 02:36:43;;;;;;;2.33;2.03;;;8.40;98.20;;;;;;5048793;28;20467;-77
2022/04/27 02:39:10;;;;;;;1.50;1.20;;;8.30;98.20;;;;;;5048227;28;20569;-76
2022/04/27 02:41:37;;;;;;;1.50;1.20;;;8.30;98.20;;;;;;5047415;28;20950;-77
2022/04/27 02:44:04;;;;;;;1.50;1.20;;;8.20;98.20;;;;;;5050067;28;20954;-76
2022/04/27 02:46:32;;;;;;;1.50;1.20;;;8.20;98.20;;;;;;5048877;28;20556;-76
2022/04/27 02:51:51;;;;;;;1.50;1.20;;;8.10;98.20;;;;;;5079994;22;20868;-78
2022/04/27 02:54:19;;;;;;;1.50;1.30;;;8.00;98.20;;;;;;5090112;28;20453;-78
2022/04/27 02:56:47;;;;;;;1.53;1.20;;;8.00;98.20;;;;;;5072241;28;20461;-78
2022/04/27 02:59:15;;;;;;;1.60;1.50;;;7.90;98.20;;;;;;5082946;28;20487;-77
2022/04/27 03:01:43;;;;;;;1.53;1.20;;;7.90;98.20;;;;;;5068331;28;20597;-78
2022/04/27 03:04:11;;;;;;;1.50;1.20;;;7.90;98.20;;;;;;5061311;28;20464;-78
2022/04/27 03:06:37;;;;;;;1.50;1.30;;;7.90;98.20;;;;;;5059448;28;20462;-79
2022/04/27 03:09:04;;;;;;;1.50;1.20;;;7.90;98.20;;;;;;5067409;28;20460;-77
2022/04/27 03:11:32;;;;;;;1.50;1.20;;;7.80;98.20;;;;;;5070257;28;20481;-79
2022/04/27 03:13:59;;;;;;;1.50;1.20;;;7.80;98.20;;;;;;5064809;28;20469;-79
2022/04/27 03:16:27;;;;;;;1.50;1.20;;;7.80;98.20;;;;;;5065799;28;20466;-78
2022/04/27 03:18:58;;;;;;;1.57;1.30;;;7.70;98.20;;;;;;5067035;28;20570;-78
2022/04/27 03:21:25;;;;;;;1.50;1.20;;;7.70;98.20;;;;;;5062868;28;20512;-79
2022/04/27 03:23:52;;;;;;;1.50;1.30;;;7.70;98.20;;;;;;5059171;28;20458;-78
2022/04/27 03:26:18;;;;;;;1.50;1.20;;;7.60;98.20;;;;;;5061265;28;20464;-78
2022/04/27 03:28:45;;;;;;;1.57;1.30;;;7.60;98.20;;;;;;5064253;28;20564;-77
2022/04/27 03:31:12;;;;;;;1.50;1.20;;;7.60;98.20;;;;;;5064497;28;20481;-79
2022/04/27 03:33:40;;;;;;;1.50;1.30;;;7.60;98.20;;;;;;5065013;28;20462;-78
2022/04/27 03:36:09;;;;;;;1.50;1.20;;;7.60;98.20;;;;;;5051860;28;20978;-78
2022/04/27 03:38:40;;;;;;;1.50;1.20;;;7.50;98.20;;;;;;5058547;28;20516;-78
2022/04/27 03:41:07;;;;;;;1.50;1.20;;;7.50;98.20;;;;;;5046513;28;20922;-79
2022/04/27 03:43:34;;;;;;;1.50;1.20;;;7.50;98.20;;;;;;5076513;28;20548;-79
2022/04/27 03:46:01;;;;;;;1.60;1.30;;;7.50;98.20;;;;;;5067880;28;20465;-79
2022/04/27 03:48:28;;;;;;;1.53;1.27;;;7.50;98.20;;;;;;5066520;28;20841;-79
2022/04/27 03:50:55;;;;;;;1.53;1.20;;;7.40;98.20;;;;;;5067612;28;20461;-78
2022/04/27 03:53:23;;;;;;;1.50;1.20;;;7.40;98.20;;;;;;5066704;28;20469;-78
2022/04/27 03:55:49;;;;;;;1.50;1.23;;;7.40;98.20;;;;;;5059698;28;20460;-77
2022/04/27 03:58:16;;;;;;;1.50;1.20;;;7.30;98.20;;;;;;5060253;28;20476;-78
2022/04/27 04:00:43;;;;;;;1.60;1.30;;;7.30;98.20;;;;;;5065690;28;20494;-79
2022/04/27 04:03:11;;;;;;;1.50;1.20;;;7.30;98.20;;;;;;5054883;28;20484;-78
2022/04/27 04:05:38;;;;;;;1.50;1.30;;;7.30;98.20;;;;;;5063351;28;20972;-79
2022/04/27 04:08:06;;;;;;;1.50;1.20;;;7.30;98.20;;;;;;5067314;28;20461;-78
2022/04/27 04:10:34;;;;;;;1.50;1.20;;;7.30;98.20;;;;;;5058740;28;20466;-78
2022/04/27 04:13:02;;;;;;;1.50;1.20;;;7.30;98.20;;;;;;5068988;28;20480;-79
2022/04/27 04:15:29;;;;;;;1.50;1.30;;;7.30;98.20;;;;;;5051296;28;20656;-79
2022/04/27 04:17:56;;;;;;;1.57;1.33;;;7.30;98.20;;;;;;5064805;28;20873;-79
2022/04/27 04:20:23;;;;;;;1.50;1.30;;;7.20;98.20;;;;;;5063988;28;20487;-80
2022/04/27 04:22:56;;;;;;;1.50;1.30;;;7.20;98.20;;;;;;5067082;28;20493;-78
2022/04/27 04:30:53;;;;;;;1.50;1.30;;;7.30;98.20;;;;;;5063234;28;20511;-79
2022/04/27 04:33:20;;;;;;;1.50;1.27;;;7.40;98.20;;;;;;5064341;28;20462;-77
2022/04/27 04:35:47;;;;;;;1.50;1.20;;;7.40;98.20;;;;;;5064989;28;20461;-79
2022/04/27 04:38:14;;;;;;;1.50;1.20;;;7.50;98.20;;;;;;5059468;28;20526;-77
2022/04/27 04:40:41;;;;;;;1.50;1.20;;;7.50;98.20;;;;;;5061386;28;20485;-78
2022/04/27 04:43:09;;;;;;;1.50;1.17;;;7.60;98.20;;;;;;5061280;28;20484;-78
2022/04/27 04:45:36;;;;;;;1.50;1.20;;;7.60;98.20;;;;;;5056278;28;20461;-78
2022/04/27 04:48:03;;;;;;;1.50;1.20;;;7.60;98.20;;;;;;5063098;28;20465;-78
2022/04/27 04:50:30;;;;;;;1.50;1.27;;;7.70;98.20;;;;;;5066963;28;20468;-79
2022/04/27 04:52:56;;;;;;;1.57;1.30;;;7.70;98.20;;;;;;5057217;28;20496;-79
2022/04/27 04:55:23;;;;;;;1.53;1.30;;;7.70;98.20;;;;;;5069110;28;20465;-79
2022/04/27 04:57:50;;;;;;;1.50;1.20;;;7.70;98.20;;;;;;5061686;28;20476;-79
2022/04/27 05:00:18;;;;;;;1.50;1.20;;;7.70;98.20;;;;;;5057780;28;21119;-78
2022/04/27 05:02:45;;;;;;;1.50;1.20;;;7.70;98.20;;;;;;5059125;28;20501;-78
2022/04/27 05:05:12;;;;;;;1.50;1.20;;;7.70;98.20;;;;;;5060506;28;20548;-79
2022/04/27 05:07:39;;;;;;;1.57;1.30;;;7.70;98.20;;;;;;5065062;28;20461;-77
2022/04/27 05:10:07;;;;;;;1.50;1.20;;;7.80;98.20;;;;;;5057951;28;20470;-78
2022/04/27 05:12:35;;;;;;;1.50;1.20;;;7.80;98.20;;;;;;5056318;28;20493;-80
2022/04/27 05:15:02;;;;;;;1.50;1.20;;;7.80;98.20;;;;;;5049894;28;20472;-79
2022/04/27 05:17:30;;;;;;;1.50;1.30;;;7.80;98.20;;;;;;5061998;28;20457;-77
2022/04/27 05:19:57;;;;;;;1.50;1.10;;;7.80;98.20;;;;;;5071794;28;20484;-79
2022/04/27 05:22:24;;;;;;;1.50;1.20;;;7.90;98.20;;;;;;5073400;28;20518;-79
2022/04/27 05:24:51;;;;;;;1.50;1.30;;;7.90;98.20;;;;;;5067536;28;20477;-80
2022/04/27 05:27:18;;;;;;;1.50;1.30;;;7.90;98.20;;;;;;5057822;28;20481;-81
2022/04/27 05:32:40;;;;;;;1.50;1.20;;;7.90;98.20;;;;;;5062410;28;20523;-79
2022/04/27 05:35:07;;;;;;;1.50;1.27;;;8.00;98.20;;;;;;5062272;28;20472;-78
2022/04/27 05:37:34;;;;;;;1.50;1.20;;;8.10;98.20;;;;;;5073345;28;21116;-79
2022/04/27 05:40:01;;;;;;;1.50;1.20;;;8.20;98.20;;;;;;5069761;28;21161;-78
2022/04/27 05:42:28;;;;;;;1.50;1.20;;;8.30;98.20;;;;;;5061180;28;20519;-79
2022/04/27 05:44:55;;;;;;;1.50;1.10;;;8.40;98.20;;;;;;5068846;28;20997;-79
2022/04/27 05:47:23;;;;;;;1.50;1.20;;;8.60;98.20;;;;;;5063637;28;20458;-81
2022/04/27 05:49:51;;;;;;;1.50;1.20;;;8.80;98.20;;;;;;5064940;28;21001;-80
2022/04/27 05:52:18;;;;;;;1.50;1.20;;;9.00;98.20;;;;;;5068245;28;20493;-79
2022/04/27 05:54:45;;;;;;;1.50;1.20;;;9.30;98.20;;;;;;5067655;28;20461;-79
2022/04/27 05:57:12;;;;;;;1.50;1.10;;;9.50;98.20;;;;;;5053988;28;20657;-79
2022/04/27 05:59:39;;;;;;;1.50;1.10;;;9.80;98.20;;;;;;5066542;28;20954;-80
2022/04/27 06:02:06;;;;;;;1.50;1.10;;;10.00;98.20;;;;;;5065872;28;20488;-80
2022/04/27 06:04:33;;;;;;;1.50;1.10;;;10.30;98.20;;;;;;5066517;28;20554;-79
2022/04/27 06:07:01;;;;;;;1.50;1.10;;;10.50;98.20;;;;;;5070098;28;20494;-77
2022/04/27 06:09:28;;;;;;;1.50;1.17;;;10.60;98.20;;;;;;5070076;28;20466;-79
2022/04/27 06:11:55;;;;;;;1.50;1.10;;;10.80;98.20;;;;;;5050455;28;20493;-80
2022/04/27 06:14:21;;;;;;;1.50;1.10;;;11.00;98.20;;;;;;5071100;28;20472;-79
2022/04/27 06:16:48;;;;;;;1.60;1.30;;;11.20;98.20;;;;;;5063044;28;20472;-79
2022/04/27 06:19:15;;;;;;;1.50;1.20;;;11.40;98.20;;;;;;5069979;28;21279;-81
2022/04/27 06:21:42;;;;;;;1.50;1.10;;;11.50;98.20;;;;;;5064545;28;20978;-79
2022/04/27 06:24:10;;;;;;;1.50;1.10;;;11.60;98.20;;;;;;5068320;28;20461;-81
2022/04/27 06:26:37;;;;;;;1.50;1.10;;;11.80;98.20;;;;;;5061544;28;20475;-79
2022/04/27 06:29:05;;;;;;;1.50;1.00;;;11.80;97.20;;;;;;5059092;28;20477;-80
2022/04/27 06:31:31;;;;;;;1.50;1.10;;;11.80;95.90;;;;;;5067890;28;20478;-80
2022/04/27 06:33:58;;;;;;;1.50;1.00;;;11.90;96.40;;;;;;5065550;28;20476;-81
2022/04/27 06:36:25;;;;;;;1.50;1.10;;;12.10;96.40;;;;;;5057301;28;20480;-79
2022/04/27 06:38:52;;;;;;;1.50;1.00;;;12.10;95.10;;;;;;5071536;28;20464;-78
2022/04/27 06:41:20;;;;;;;1.50;1.00;;;12.20;94.80;;;;;;5058107;28;20490;-77
2022/04/27 06:46:16;;;;;;;1.50;1.00;;;12.50;94.40;;;;;;5053459;28;20561;-76
2022/04/27 06:48:45;;;;;;;1.50;1.00;;;12.50;93.70;;;;;;5063470;28;21013;-77
2022/04/27 06:51:11;;;;;;;1.50;1.00;;;12.70;93.60;;;;;;5049122;28;20469;-77
2022/04/27 06:53:38;;;;;;;1.50;1.10;;;12.80;93.40;;;;;;5050846;28;20508;-77
2022/04/27 06:56:05;;;;;;;1.50;1.00;;;13.00;93.20;;;;;;5033947;28;20474;-76
2022/04/27 06:58:33;;;;;;;1.50;1.00;;;13.30;91.90;;;;;;5044416;28;20479;-77
2022/04/27 07:01:00;;;;;;;1.50;1.00;;;13.50;90.90;;;;;;5043539;28;20581;-77
2022/04/27 07:03:28;;;;;;;1.50;1.10;;;13.60;90.50;;;;;;5044924;28;20493;-77
2022/04/27 07:05:54;;;;;;;1.50;1.00;;;13.70;90.20;;;;;;5034607;28;20486;-77
2022/04/27 07:08:21;;;;;;;1.50;0.93;;;13.80;88.60;;;;;;5034979;28;20466;-77
2022/04/27 07:10:49;;;;;;;1.50;1.10;;;13.90;88.00;;;;;;5043995;28;20642;-77
2022/04/27 07:13:15;;;;;;;1.50;1.00;;;14.10;89.00;;;;;;5041892;28;20486;-77
2022/04/27 07:15:43;;;;;;;1.50;1.03;;;14.20;88.00;;;;;;5045043;28;20957;-77
2022/04/27 07:18:11;;;;;;;2.47;2.17;;;14.30;88.10;;;;;;5044835;28;20470;-76
2022/04/27 07:20:39;;;;;;;1.50;1.00;;;14.40;88.10;;;;;;5035619;28;20525;-77
2022/04/27 07:23:06;;;;;;;1.50;1.00;;;14.50;87.50;;;;;;5014437;28;20992;-78
2022/04/27 07:25:33;;;;;;;1.50;1.00;;;14.70;87.80;;;;;;5044715;28;20466;-77
2022/04/27 07:28:00;;;;;;;2.13;1.93;;;14.90;87.30;;;;;;5041448;28;20513;-77
2022/04/27 07:30:27;;;;;;;1.50;0.90;;;15.00;86.50;;;;;;5044473;28;20469;-77
2022/04/27 07:32:55;;;;;;;1.50;1.00;;;15.10;85.20;;;;;;5043870;28;20977;-77
2022/04/27 07:35:21;;;;;;;1.50;0.93;;;15.20;84.70;;;;;;5042643;28;20478;-78
2022/04/27 07:37:48;;;;;;;1.50;0.90;;;15.30;85.60;;;;;;5028603;28;21040;-77
2022/04/27 07:40:15;;;;;;;1.50;0.97;;;15.30;84.00;;;;;;5038959;28;21064;-77
2022/04/27 07:42:42;;;;;;;1.50;1.00;;;15.40;84.00;;;;;;5044960;28;20473;-76
2022/04/27 07:45:09;;;;;;;1.47;0.90;;;15.50;84.00;;;;;;5048693;28;20481;-77
2022/04/27 07:47:44;;;;;;;1.50;1.00;;;15.70;84.00;;;;;;5043061;28;20552;-78
2022/04/27 07:50:35;;;;;;;1.50;1.00;;;15.80;83.40;;;;;;5040782;28;20546;-76
2022/04/27 07:53:02;;;;;;;1.50;1.10;;;15.90;82.20;;;;;;5039289;28;20502;-77
2022/04/27 07:55:32;;;;;;;1.50;0.90;;;16.00;82.50;;;;;;5052160;28;20462;-76
2022/04/27 07:57:59;;;;;;;1.50;0.90;;;15.90;82.10;;;;;;5028275;28;20595;-77
2022/04/27 08:00:26;;;;;;;1.47;0.90;;;16.00;81.90;;;;;;5042618;28;20486;-75
2022/04/27 08:02:53;;;;;;;1.50;1.00;;;16.20;82.60;;;;;;5028603;28;20531;-76
2022/04/27 08:05:19;;;;;;;1.50;0.90;;;16.30;82.30;;;;;;5032952;28;20497;-76
2022/04/27 08:07:48;;;;;;;1.47;0.90;;;16.30;80.70;;;;;;5043079;28;21804;-76
2022/04/27 08:10:16;;;;;;;1.50;0.90;;;16.20;81.60;;;;;;5044544;28;20804;-76
2022/04/27 08:12:47;;;;;;;1.50;1.10;;;16.30;81.40;;;;;;5043307;28;20854;-76
2022/04/27 08:15:14;;;;;;;1.50;1.00;;;16.40;81.30;;;;;;5044740;28;20462;-76
2022/04/27 08:17:51;;;;;;;1.50;0.90;;;16.70;81.50;;;;;;5042875;28;20469;-76
2022/04/27 08:23:07;;;;;;;1.50;0.90;;;17.20;80.80;;;;;;5038928;28;20538;-78
2022/04/27 08:25:34;;;;;;;1.50;0.90;;;17.50;79.70;;;;;;5043487;28;20704;-76
2022/04/27 08:28:03;;;;;;;1.47;0.90;;;17.60;77.30;;;;;;5041846;28;20465;-78
2022/04/27 08:30:30;;;;;;;1.47;0.90;;;17.60;76.40;;;;;;5043547;28;20635;-78
2022/04/27 08:32:59;;;;;;;1.50;0.90;;;17.60;77.20;;;;;;5043833;28;20839;-75
2022/04/27 08:35:26;;;;;;;1.50;1.00;;;17.70;78.80;;;;;;5044047;28;20462;-76
2022/04/27 08:37:53;;;;;;;1.50;0.90;;;17.80;77.50;;;;;;5043946;28;20462;-78
2022/04/27 08:40:21;;;;;;;1.50;0.90;;;18.10;77.90;;;;;;5042914;28;20466;-79
2022/04/27 08:42:49;;;;;;;1.50;0.90;;;18.20;76.70;;;;;;5037191;28;20462;-78
2022/04/27 08:45:16;;;;;;;1.50;1.20;;;18.30;75.70;;;;;;5038369;28;20478;-78
2022/04/27 08:47:43;;;;;;;1.50;1.00;;;18.30;75.50;;;;;;5040323;28;20872;-75
2022/04/27 08:50:13;;;;;;;1.50;0.90;;;18.40;75.70;;;;;;5034380;28;20532;-76
2022/04/27 08:52:41;;;;;;;1.47;0.90;;;18.40;75.90;;;;;;5042107;28;20471;-78
2022/04/27 08:55:08;;;;;;;1.57;1.20;;;18.50;76.90;;;;;;5046506;28;20926;-77
2022/04/27 08:57:38;;;;;;;1.50;0.90;;;18.70;76.10;;;;;;5043824;28;20467;-77
2022/04/27 09:00:06;;;;;;;1.50;0.90;;;18.80;77.10;;;;;;5049385;28;20469;-75
2022/04/27 09:02:33;;;;;;;1.47;0.90;;;19.00;74.50;;;;;;5049379;28;20486;-77
2022/04/27 09:05:07;;;;;;;1.50;0.90;;;19.10;74.20;;;;;;5050163;28;20501;-78
2022/04/27 09:07:41;;;;;;;1.47;0.90;;;19.30;75.70;;;;;;5045096;28;20823;-78
2022/04/27 09:10:10;;;;;;;1.47;0.90;;;19.30;73.30;;;;;;5050210;28;20919;-77
2022/04/27 09:12:44;;;;;;;1.50;0.90;;;19.60;72.50;;;;;;5049788;28;21044;-77
2022/04/27 09:15:12;;;;;;;1.43;0.90;;;19.70;72.90;;;;;;5047436;28;20457;-77
2022/04/27 09:23:21;;;;;;;1.47;0.90;;;19.90;72.50;;;;;;5053544;28;20465;-79
2022/04/27 09:25:51;;;;;;;1.47;0.90;;;20.20;70.70;;;;;;5053416;28;20489;-75
2022/04/27 09:28:24;;;;;;;1.50;0.90;;;20.50;71.70;;;;;;5045497;28;20860;-78
2022/04/27 09:30:51;;;;;;;1.50;0.90;;;20.60;70.10;;;;;;5045114;28;20980;-76
2022/04/27 09:33:37;;;;;;;1.50;0.90;;;20.70;70.30;;;;;;5050236;28;20867;-77
2022/04/27 09:36:23;;;;;;;1.43;0.80;;;20.70;71.10;;;;;;5050818;28;20504;-74
2022/04/27 09:38:50;;;;;;;3.77;1.30;;;20.80;69.20;;;;;;5052829;28;21088;-79
2022/04/27 09:41:37;;;;;;;1.50;0.90;;;20.80;70.30;;;;;;5049261;28;20492;-76
2022/04/27 09:44:05;;;;;;;1.47;0.90;;;20.90;70.60;;;;;;5046396;28;20485;-77
2022/04/27 09:46:38;;;;;;;1.50;0.90;;;20.90;69.40;;;;;;5046022;28;20578;-77
2022/04/27 09:49:14;;;;;;;1.50;0.90;;;20.80;69.60;;;;;;5045386;28;20482;-77
2022/04/27 09:51:48;;;;;;;1.50;0.90;;;20.80;70.40;;;;;;5041078;28;20557;-77
2022/04/27 09:54:20;;;;;;;2.20;1.30;;;20.80;69.10;;;;;;5049513;28;20831;-76
2022/04/27 09:56:51;;;;;;;1.97;1.77;;;20.70;68.50;;;;;;5042897;28;20577;-78
2022/04/27 09:59:21;;;;;;;1.47;0.90;;;20.80;68.60;;;;;;5045714;28;20466;-77
2022/04/27 10:01:49;;;;;;;1.50;0.90;;;20.90;69.30;;;;;;5040759;28;20745;-79
2022/04/27 10:04:20;;;;;;;1.47;0.90;;;21.00;69.60;;;;;;5044242;28;20493;-76
2022/04/27 10:06:48;;;;;;;1.43;0.87;;;21.10;69.30;;;;;;5049616;28;20458;-78
2022/04/27 10:09:15;;;;;;;1.50;0.90;;;21.20;68.20;;;;;;5042568;28;20531;-78
2022/04/27 10:11:42;;;;;;;1.50;0.90;;;21.30;67.40;;;;;;5042052;28;20466;-78
2022/04/27 10:14:10;;;;;;;1.93;1.67;;;21.40;68.80;;;;;;5043515;28;20482;-78
2022/04/27 10:16:39;;;;;;;1.47;0.90;;;21.60;69.30;;;;;;5043757;28;20616;-79
2022/04/27 10:19:10;;;;;;;1.47;0.87;;;21.70;68.40;;;;;;5035401;28;20459;-79
2022/04/27 10:21:39;;;;;;;1.47;0.90;;;21.80;68.30;;;;;;5037631;28;20478;-78
2022/04/27 10:24:07;;;;;;;1.50;0.90;;;21.90;68.30;;;;;;5048729;28;20478;-79
2022/04/27 10:26:35;;;;;;;1.47;0.90;;;21.90;66.60;;;;;;5049969;28;20552;-79
2022/04/27 10:29:05;;;;;;;1.47;0.80;;;22.00;65.90;;;;;;5049721;28;20461;-78
2022/04/27 10:32:02;;;;;;;1.47;0.90;;;22.00;65.80;;;;;;5047229;28;20496;-78
2022/04/27 10:34:29;;;;;;;1.47;0.90;;;22.10;68.20;;;;;;5049014;28;20958;-78
2022/04/27 10:36:57;;;;;;;1.50;0.90;;;22.20;66.80;;;;;;5048950;28;20465;-76
2022/04/27 10:39:25;;;;;;;1.47;0.90;;;22.00;64.70;;;;;;5047442;28;20463;-77
2022/04/27 10:42:16;;;;;;;1.43;0.90;;;21.90;65.70;;;;;;5047863;28;20490;-78
2022/04/27 10:45:08;;;;;;;1.50;0.80;;;21.80;64.60;;;;;;5048011;28;20493;-77
2022/04/27 10:47:37;;;;;;;1.50;1.10;;;21.80;66.30;;;;;;5047707;28;20477;-77
2022/04/27 10:50:23;;;;;;;1.47;0.90;;;21.90;66.70;;;;;;5033752;28;20471;-79
2022/04/27 10:52:52;;;;;;;1.47;0.80;;;21.90;65.30;;;;;;5043003;28;20481;-78
2022/04/27 10:55:51;;;;;;;1.50;0.90;;;21.90;65.70;;;;;;5047837;28;20545;-77
2022/04/27 10:58:19;;;;;;;1.47;0.90;;;22.00;64.60;;;;;;5031889;28;20478;-77
2022/04/27 11:01:25;;;;;;;1.50;0.80;;;22.10;66.40;;;;;;5046672;28;20473;-77
2022/04/27 11:04:14;;;;;;;1.50;0.90;;;22.10;66.30;;;;;;5043576;28;20489;-76
2022/04/27 11:07:20;;;;;;;1.47;0.80;;;22.20;65.30;;;;;;5048617;28;20517;-77
2022/04/27 11:10:18;;;;;;;1.47;0.87;;;22.10;65.60;;;;;;5044242;28;20474;-77
2022/04/27 11:12:48;;;;;;;1.50;0.87;;;22.10;65.00;;;;;;5041817;28;20950;-77
2022/04/27 11:15:21;;;;;;;1.50;0.90;;;22.10;65.40;;;;;;5028668;28;20451;-76
2022/04/27 11:17:55;;;;;;;1.47;0.80;;;22.20;66.60;;;;;;5022274;28;20510;-76
2022/04/27 11:20:34;;;;;;;1.80;1.60;;;22.30;64.40;;;;;;5035366;28;20972;-77
2022/04/27 11:23:03;;;;;;;1.50;0.90;;;22.30;65.90;;;;;;5029339;28;20701;-77
2022/04/27 11:25:31;;;;;;;1.43;0.90;;;22.30;63.10;;;;;;5047249;28;20485;-77
2022/04/27 11:27:59;;;;;;;1.40;0.90;;;22.20;64.20;;;;;;5047311;28;20489;-76
2022/04/27 11:30:27;;;;;;;1.43;0.90;;;22.30;66.10;;;;;;5046657;28;20474;-77
2022/04/27 11:32:54;;;;;;;1.50;0.90;;;22.50;66.80;;;;;;5046397;28;20454;-76
2022/04/27 11:35:23;;;;;;;1.50;0.80;;;22.70;66.10;;;;;;5047708;28;20462;-76
2022/04/27 11:37:53;;;;;;;1.40;0.90;;;22.90;65.10;;;;;;5036067;28;20901;-76
2022/04/27 11:40:25;;;;;;;1.43;0.80;;;22.90;65.20;;;;;;5042138;28;20813;-77
2022/04/27 11:42:53;;;;;;;1.40;0.87;;;23.00;64.70;;;;;;5019772;28;20658;-76
2022/04/27 11:45:21;;;;;;;1.40;0.90;;;23.00;64.00;;;;;;5042895;28;20478;-76
2022/04/27 11:48:02;;;;;;;1.40;0.90;;;23.00;64.30;;;;;;5031417;28;20762;-76
2022/04/27 11:50:31;;;;;;;1.40;0.80;;;23.10;64.40;;;;;;5036983;28;20490;-77
2022/04/27 11:53:04;;;;;;;1.43;0.80;;;23.30;65.30;;;;;;5025159;28;20474;-77
2022/04/27 11:55:31;;;;;;;1.50;0.80;;;23.40;63.70;;;;;;5039741;28;20478;-76
2022/04/27 11:57:59;;;;;;;1.77;1.20;;;23.10;62.40;;;;;;5027901;28;21037;-77
2022/04/27 12:00:27;;;;;;;1.70;0.93;;;23.00;64.60;;;;;;5039603;28;20462;-75
2022/04/27 12:02:54;;;;;;;1.47;0.90;;;23.10;65.20;;;;;;5040190;28;20490;-76
2022/04/27 12:05:30;;;;;;;1.50;0.90;;;23.20;64.20;;;;;;5037577;28;20488;-76
2022/04/27 12:07:56;;;;;;;1.40;0.87;;;23.20;62.20;;;;;;5026786;28;20979;-76
2022/04/27 12:10:25;;;;;;;1.40;0.80;;;23.20;63.70;;;;;;5045394;28;20470;-77
2022/04/27 12:12:52;;;;;;;1.60;1.40;;;23.30;64.30;;;;;;5044183;28;20454;-76
2022/04/27 12:15:25;;;;;;;1.47;0.90;;;23.30;64.20;;;;;;5045580;28;20857;-76
2022/04/27 12:17:54;;;;;;;1.40;0.90;;;23.20;64.20;;;;;;5040973;28;20467;-76
2022/04/27 12:20:36;;;;;;;1.50;0.80;;;23.10;63.70;;;;;;5033740;28;20472;-77
2022/04/27 12:23:05;;;;;;;1.40;0.80;;;23.00;62.10;;;;;;5014115;28;20483;-76
2022/04/27 12:25:35;;;;;;;1.40;0.90;;;22.90;65.10;;;;;;5044710;28;20587;-77
2022/04/27 12:28:03;;;;;;;1.40;0.90;;;23.00;64.90;;;;;;5047401;28;20851;-77
2022/04/27 12:30:30;;;;;;;1.40;0.80;;;23.10;62.20;;;;;;5047854;28;20462;-76
2022/04/27 12:32:58;;;;;;;1.43;0.90;;;23.10;65.40;;;;;;5034923;28;20544;-77
2022/04/27 12:38:17;;;;;;;1.43;0.80;;;23.40;62.70;;;;;;5058367;28;20548;-77
2022/04/27 12:40:46;;;;;;;1.43;0.80;;;23.30;62.80;;;;;;5047692;28;20550;-77
2022/04/27 12:43:14;;;;;;;1.50;1.10;;;23.10;62.40;;;;;;5027710;28;20491;-77
2022/04/27 12:45:41;;;;;;;1.93;1.37;;;23.30;65.20;;;;;;5057374;22;20521;-78
2022/04/27 12:48:28;;;;;;;1.47;0.90;;;23.10;62.80;;;;;;5044945;28;20462;-79
2022/04/27 12:50:55;;;;;;;1.50;0.90;;;22.90;63.50;;;;;;5035433;28;21882;-79
2022/04/27 12:53:22;;;;;;;1.50;0.90;;;22.60;64.20;;;;;;5063985;28;20509;-78
2022/04/27 12:56:03;;;;;;;1.50;0.90;;;22.50;64.30;;;;;;5050688;28;20493;-78
2022/04/27 12:58:30;;;;;;;1.50;0.90;;;22.50;64.30;;;;;;5050249;28;20853;-80
2022/04/27 13:00:57;;;;;;;1.43;0.90;;;22.50;65.00;;;;;;5051518;28;20584;-81
2022/04/27 13:03:24;;;;;;;1.50;0.90;;;22.30;64.40;;;;;;5047372;28;20511;-78
2022/04/27 13:05:51;;;;;;;1.47;0.90;;;22.10;64.40;;;;;;5044555;28;20857;-79
2022/04/27 13:08:18;;;;;;;1.43;0.87;;;22.00;66.20;;;;;;5046361;28;20466;-78
2022/04/27 13:13:32;;;;;;;1.50;1.00;;;22.30;65.50;;;;;;5040771;28;20497;-78
2022/04/27 13:15:59;;;;;;;1.40;0.90;;;22.50;65.10;;;;;;5042264;28;20481;-80
2022/04/27 13:18:26;;;;;;;1.50;0.90;;;22.80;64.00;;;;;;5045548;28;20505;-80
2022/04/27 13:20:53;;;;;;;1.40;0.90;;;22.90;63.60;;;;;;5027717;28;20454;-80
2022/04/27 13:23:21;;;;;;;1.40;1.00;;;23.00;62.90;;;;;;5048648;28;20554;-79
2022/04/27 13:25:48;;;;;;;1.40;0.90;;;23.10;64.50;;;;;;5036585;28;20482;-78
2022/04/27 13:28:15;;;;;;;1.47;0.90;;;23.30;62.30;;;;;;5055007;28;20463;-79
2022/04/27 13:30:44;;;;;;;1.40;0.80;;;23.40;64.10;;;;;;5048968;28;20490;-79
2022/04/27 13:33:11;;;;;;;1.50;0.93;;;23.50;65.10;;;;;;5045017;28;20528;-80